Time;durP1;ratioP1;P1;durP2;ratioP2;P2;SDS_P1;SDS_P2;PMS_P1;PMS_P2;Temp;Humidity;BMP_temperature;BMP_pressure;BME280_temperature;BME280_humidity;BME280_pressure;Samples;Min_cycle;Max_cycle;Signal;HPM_P1;HPM_P2
2021/12/21 05:45:17;;;;;;;4.60;2.58;;;;;;;-1.45;75.72;101017.16;4986808;28;107832;-63
2021/12/21 05:47:44;;;;;;;12.80;2.72;;;;;;;-1.42;75.96;101023.09;4986198;28;105844;-63
2021/12/21 05:50:16;;;;;;;6.47;3.20;;;;;;;-1.39;76.15;101012.47;4985161;28;106137;-61
2021/12/21 05:52:43;;;;;;;5.82;3.22;;;;;;;-1.31;76.19;101019.09;4965755;28;105920;-64
2021/12/21 05:55:09;;;;;;;6.68;3.15;;;;;;;-1.23;76.32;101019.56;4965539;28;106000;-64
2021/12/21 05:57:35;;;;;;;5.80;3.05;;;;;;;-1.15;76.47;101019.22;4964967;28;105890;-62
2021/12/21 06:00:01;;;;;;;7.70;3.22;;;;;;;-1.08;76.33;101016.25;4979601;28;105863;-66
2021/12/21 06:02:26;;;;;;;5.10;2.90;;;;;;;-1.00;76.31;101017.63;4984237;28;106565;-66
2021/12/21 06:04:52;;;;;;;6.18;2.80;;;;;;;-0.95;76.57;101019.09;4984496;28;105881;-66
2021/12/21 06:07:18;;;;;;;5.93;3.15;;;;;;;-0.90;76.05;101019.72;4985367;28;106336;-66
2021/12/21 06:09:46;;;;;;;6.10;3.28;;;;;;;-0.87;75.97;101018.72;4984864;28;106258;-66
2021/12/21 06:12:52;;;;;;;5.60;3.70;;;;;;;-0.83;75.93;101006.31;4983772;28;106099;-66
2021/12/21 06:15:45;;;;;;;8.43;3.70;;;;;;;-0.79;76.39;101011.34;4984165;28;105915;-61
2021/12/21 06:25:03;;;;;;;8.90;3.70;;;;;;;-0.68;75.71;101027.34;4984280;28;106685;-61
2021/12/21 06:26:30;;;;;;;12.43;3.88;;;;;;;-0.66;75.93;101029.88;4983974;28;105827;-63
2021/12/21 06:28:56;;;;;;;8.10;3.80;;;;;;;-0.64;75.91;101029.78;4985490;28;106592;-64
2021/12/21 06:31:21;;;;;;;9.77;3.40;;;;;;;-0.65;76.09;101039.41;4983723;28;105996;-63
2021/12/21 06:33:47;;;;;;;9.70;4.43;;;;;;;-0.65;75.82;101049.06;4983893;28;106019;-67
2021/12/21 06:36:13;;;;;;;9.35;3.45;;;;;;;-0.65;75.94;101038.59;4983999;28;106204;-66
2021/12/21 06:38:38;;;;;;;10.63;3.75;;;;;;;-0.64;75.94;101037.63;4984914;28;105865;-67
2021/12/21 06:41:04;;;;;;;7.28;3.30;;;;;;;-0.63;76.15;101041.94;4984220;28;106220;-66
2021/12/21 06:43:31;;;;;;;8.15;3.88;;;;;;;-0.63;75.90;101036.72;4982967;28;105966;-66
2021/12/21 06:46:06;;;;;;;7.72;3.22;;;;;;;-0.63;75.84;101034.97;4984137;28;105968;-66
2021/12/21 06:51:25;;;;;;;7.70;3.90;;;;;;;-0.63;75.80;101049.81;4984314;28;105957;-64
2021/12/21 06:53:54;;;;;;;6.93;3.30;;;;;;;-0.62;75.98;101052.34;4984035;28;106883;-64
2021/12/21 06:56:21;;;;;;;9.82;4.03;;;;;;;-0.59;75.97;101048.72;4971718;28;105930;-64
2021/12/21 06:58:46;;;;;;;7.57;3.35;;;;;;;-0.60;76.13;101054.88;4971388;28;105775;-66
2021/12/21 07:01:15;;;;;;;6.90;3.42;;;;;;;-0.58;75.95;101053.88;4970530;28;106244;-66
2021/12/21 07:03:42;;;;;;;9.20;3.35;;;;;;;-0.57;76.10;101050.34;4970085;28;106264;-67
2021/12/21 07:06:08;;;;;;;9.65;4.28;;;;;;;-0.58;75.85;101045.19;4969955;28;105899;-66
2021/12/21 07:08:45;;;;;;;7.30;3.28;;;;;;;-0.62;75.68;101056.75;4971160;28;106560;-67
2021/12/21 07:19:34;;;;;;;4.13;2.42;;;;;;;-0.73;76.04;101062.50;4968164;28;105892;-64
2021/12/21 07:21:59;;;;;;;5.53;2.20;;;;;;;-0.76;75.71;101058.28;4970576;28;106374;-65
2021/12/21 07:24:25;;;;;;;4.95;2.35;;;;;;;-0.78;75.66;101065.38;4968864;28;106140;-66
2021/12/21 07:26:51;;;;;;;4.07;2.00;;;;;;;-0.78;76.30;101059.25;4969784;28;105817;-66
2021/12/21 07:29:17;;;;;;;4.38;2.08;;;;;;;-0.79;76.01;101065.41;4971223;28;105958;-65
2021/12/21 07:31:43;;;;;;;4.95;2.55;;;;;;;-0.81;76.02;101069.88;4970595;28;105976;-66
2021/12/21 07:34:09;;;;;;;5.03;2.33;;;;;;;-0.82;75.73;101074.28;4970040;28;105921;-66
2021/12/21 07:36:34;;;;;;;3.35;1.80;;;;;;;-0.82;75.67;101070.81;4970113;28;105924;-67
2021/12/21 07:39:02;;;;;;;6.28;2.30;;;;;;;-0.82;76.03;101076.91;4970982;28;105984;-67
2021/12/21 07:41:28;;;;;;;5.03;2.63;;;;;;;-0.80;76.24;101077.66;4970204;28;106269;-68
2021/12/21 07:43:53;;;;;;;3.78;2.03;;;;;;;-0.77;75.53;101074.88;4969224;28;106210;-65
2021/12/21 07:46:19;;;;;;;4.60;2.28;;;;;;;-0.74;75.77;101076.50;4969826;28;106087;-66
2021/12/21 07:48:45;;;;;;;6.25;2.08;;;;;;;-0.75;75.99;101069.56;4970523;28;105891;-66
2021/12/21 07:51:10;;;;;;;6.03;2.88;;;;;;;-0.76;76.19;101073.97;4970293;28;105835;-65
2021/12/21 07:53:36;;;;;;;6.88;2.47;;;;;;;-0.76;75.60;101073.13;4969478;28;105673;-65
2021/12/21 07:56:02;;;;;;;4.55;2.03;;;;;;;-0.72;75.64;101075.50;4969259;28;106168;-68
2021/12/21 07:58:32;;;;;;;4.78;2.25;;;;;;;-0.70;75.54;101073.69;4970403;28;105914;-66
2021/12/21 08:01:00;;;;;;;6.15;2.60;;;;;;;-0.66;75.15;101076.13;4969972;28;105820;-67
2021/12/21 08:03:26;;;;;;;4.75;2.15;;;;;;;-0.66;75.41;101074.34;4969451;28;106004;-65
2021/12/21 08:05:54;;;;;;;6.60;2.45;;;;;;;-0.63;75.19;101079.47;4969570;28;106515;-66
2021/12/21 08:08:23;;;;;;;3.95;2.35;;;;;;;-0.62;75.46;101075.06;4969344;28;105966;-67
2021/12/21 08:10:56;;;;;;;4.80;3.13;;;;;;;-0.68;75.31;101084.91;4969644;28;106196;-67
2021/12/21 08:13:22;;;;;;;4.18;2.65;;;;;;;-0.65;75.15;101080.47;4969732;28;106806;-65
2021/12/21 08:15:48;;;;;;;6.40;2.65;;;;;;;-0.62;75.68;101082.91;4969581;28;106040;-66
2021/12/21 08:18:14;;;;;;;5.90;2.33;;;;;;;-0.60;75.58;101083.66;4970187;28;106121;-66
2021/12/21 08:20:40;;;;;;;4.60;2.38;;;;;;;-0.58;75.38;101087.06;4969081;28;105984;-67
2021/12/21 08:23:06;;;;;;;8.20;2.90;;;;;;;-0.57;75.19;101086.16;4969239;28;106014;-67
2021/12/21 08:25:33;;;;;;;5.28;2.75;;;;;;;-0.58;74.94;101076.59;4968752;28;106258;-65
2021/12/21 08:27:59;;;;;;;5.60;3.00;;;;;;;-0.49;75.37;101084.00;4969630;28;106230;-66
2021/12/21 08:30:26;;;;;;;3.80;2.45;;;;;;;-0.35;75.57;101081.50;4968954;28;106216;-66
2021/12/21 08:32:51;;;;;;;4.53;2.38;;;;;;;-0.26;74.98;101081.97;4955088;28;105974;-64
2021/12/21 08:35:16;;;;;;;4.95;2.63;;;;;;;-0.26;74.91;101087.22;4949462;28;105932;-69
2021/12/21 08:37:49;;;;;;;11.38;3.35;;;;;;;-0.24;75.03;101088.81;4950010;28;106422;-66
2021/12/21 08:40:15;;;;;;;8.00;3.38;;;;;;;-0.23;74.69;101092.31;4956531;28;106326;-65
2021/12/21 08:42:41;;;;;;;10.23;4.40;;;;;;;-0.16;75.08;101096.31;4949151;28;106087;-63
2021/12/21 08:45:07;;;;;;;6.93;3.90;;;;;;;-0.07;74.88;101101.06;4949011;28;106313;-65
2021/12/21 08:47:34;;;;;;;10.90;3.80;;;;;;;0.00;75.15;101096.38;4949933;28;105956;-65
2021/12/21 08:49:59;;;;;;;6.72;3.35;;;;;;;0.04;74.70;101110.13;4949700;28;105896;-67
2021/12/21 08:52:24;;;;;;;8.30;3.55;;;;;;;0.13;74.93;101099.19;4949028;28;106015;-67
2021/12/21 08:54:50;;;;;;;7.13;3.20;;;;;;;0.21;74.87;101107.47;4949395;28;106106;-65
2021/12/21 08:57:16;;;;;;;6.38;3.40;;;;;;;0.36;74.97;101094.50;4950284;28;105931;-67
2021/12/21 08:59:41;;;;;;;9.27;3.72;;;;;;;0.48;74.46;101091.22;4949595;28;106159;-66
2021/12/21 09:02:07;;;;;;;9.93;3.90;;;;;;;0.57;74.86;101093.31;4949012;28;105881;-64
2021/12/21 09:04:33;;;;;;;11.13;4.30;;;;;;;0.87;74.74;101103.06;4949189;28;106475;-62
2021/12/21 09:06:59;;;;;;;8.27;3.72;;;;;;;1.30;74.82;101103.28;4950073;28;105867;-64
2021/12/21 09:09:24;;;;;;;9.88;4.40;;;;;;;1.35;73.29;101110.88;4949270;28;106200;-65
2021/12/21 09:11:50;;;;;;;9.18;4.35;;;;;;;1.34;73.31;101109.22;4949036;28;106030;-64
2021/12/21 09:14:17;;;;;;;8.98;3.50;;;;;;;1.34;73.09;101104.78;4948842;28;106241;-65
2021/12/21 09:16:43;;;;;;;13.63;3.80;;;;;;;1.31;73.06;101107.59;4950155;28;106078;-64
2021/12/21 09:19:08;;;;;;;10.25;4.18;;;;;;;1.24;71.91;101100.16;4948432;28;106141;-64
2021/12/21 09:21:34;;;;;;;8.77;3.72;;;;;;;1.13;72.53;101100.75;4948976;28;106078;-64
2021/12/21 09:23:59;;;;;;;8.35;3.55;;;;;;;1.08;72.70;101102.78;4948244;28;106339;-66
2021/12/21 09:26:25;;;;;;;8.00;4.18;;;;;;;1.09;72.99;101099.25;4949630;28;106353;-65
2021/12/21 09:28:51;;;;;;;5.93;2.95;;;;;;;1.10;73.12;101101.78;4948825;28;106303;-65
2021/12/21 09:31:17;;;;;;;6.03;3.83;;;;;;;1.22;73.47;101104.63;4948868;28;105730;-66
2021/12/21 09:33:43;;;;;;;10.00;4.60;;;;;;;1.36;73.21;101094.19;4948928;28;105963;-67
2021/12/21 09:36:08;;;;;;;6.82;4.28;;;;;;;1.45;73.21;101091.06;4949736;28;105811;-66
2021/12/21 09:38:34;;;;;;;7.93;4.65;;;;;;;1.56;72.86;101103.56;4949445;28;106183;-65
2021/12/21 09:40:59;;;;;;;6.40;3.50;;;;;;;1.53;71.83;101095.84;4948760;28;105745;-65
2021/12/21 09:43:25;;;;;;;8.13;3.65;;;;;;;1.45;71.95;101098.06;4948297;28;106001;-66
2021/12/21 09:45:51;;;;;;;8.90;3.13;;;;;;;1.44;72.32;101096.38;4949417;28;106554;-63
2021/12/21 09:48:16;;;;;;;6.80;2.95;;;;;;;1.47;72.47;101096.22;4948740;28;105958;-64
2021/12/21 09:50:42;;;;;;;8.98;3.03;;;;;;;1.49;72.33;101103.06;4948361;28;106057;-63
2021/12/21 09:53:08;;;;;;;8.52;3.65;;;;;;;1.46;71.47;101089.25;4948196;28;106170;-64
2021/12/21 09:55:33;;;;;;;11.95;4.10;;;;;;;1.32;71.57;101093.53;4948003;28;106117;-65
2021/12/21 09:57:59;;;;;;;6.22;3.17;;;;;;;1.30;71.65;101094.53;4948432;28;106303;-64
2021/12/21 10:00:28;;;;;;;10.15;4.47;;;;;;;1.38;71.59;101088.84;4948140;28;106670;-65
2021/12/21 10:03:02;;;;;;;6.70;2.90;;;;;;;1.50;71.61;101088.16;4947627;28;106400;-63
2021/12/21 10:05:29;;;;;;;7.53;2.90;;;;;;;1.78;71.82;101084.75;4949226;28;106203;-65
2021/12/21 10:07:56;;;;;;;12.35;4.18;;;;;;;1.84;71.52;101089.63;4948222;28;106125;-63
2021/12/21 10:10:22;;;;;;;7.18;3.45;;;;;;;1.77;70.29;101090.09;4947476;28;105913;-63
2021/12/21 10:12:48;;;;;;;6.97;3.08;;;;;;;1.69;71.06;101085.28;4948145;28;106283;-64
2021/12/21 10:15:20;;;;;;;8.63;3.05;;;;;;;1.61;70.31;101090.97;4948809;28;105884;-64
2021/12/21 10:17:58;;;;;;;8.55;3.13;;;;;;;1.59;70.91;101090.22;4947810;28;106180;-62
2021/12/21 10:20:37;;;;;;;8.85;2.88;;;;;;;1.61;70.91;101093.59;4945942;28;107293;-63
2021/12/21 10:23:10;;;;;;;11.20;3.42;;;;;;;1.66;71.13;101083.69;4947924;28;105829;-67
2021/12/21 10:26:00;;;;;;;13.27;3.38;;;;;;;1.69;70.71;101088.78;4948558;28;106024;-67
2021/12/21 10:28:37;;;;;;;4.90;2.90;;;;;;;1.60;69.82;101089.31;4946971;28;106246;-66
2021/12/21 10:31:06;;;;;;;7.97;3.33;;;;;;;1.52;70.30;101087.13;4949170;28;106639;-63
2021/12/21 10:33:32;;;;;;;8.75;3.25;;;;;;;1.46;69.53;101091.88;4950848;28;105916;-64
2021/12/21 10:36:00;;;;;;;7.43;3.55;;;;;;;1.33;69.70;101097.00;4951731;28;105943;-63
2021/12/21 10:38:30;;;;;;;7.25;3.45;;;;;;;1.31;70.34;101091.84;4951056;28;106137;-66
2021/12/21 10:41:11;;;;;;;10.43;4.03;;;;;;;1.32;70.33;101096.16;4950727;28;106028;-66
2021/12/21 10:43:37;;;;;;;11.18;4.22;;;;;;;1.25;70.28;101097.44;4950347;28;106000;-67
2021/12/21 10:46:03;;;;;;;15.20;4.28;;;;;;;1.20;69.90;101091.59;4952208;28;106157;-65
2021/12/21 10:48:30;;;;;;;12.35;5.18;;;;;;;1.16;70.23;101090.09;4951247;28;106434;-65
2021/12/21 10:50:56;;;;;;;7.30;4.28;;;;;;;1.10;70.10;101090.44;4951046;28;107365;-65
2021/12/21 10:53:25;;;;;;;5.85;3.92;;;;;;;0.97;69.56;101085.88;4951099;28;106565;-64
2021/12/21 10:56:08;;;;;;;16.35;4.53;;;;;;;0.94;70.16;101080.78;4951579;28;105837;-67
2021/12/21 10:58:40;;;;;;;11.98;5.40;;;;;;;0.93;70.08;101078.25;4950970;28;105989;-64
2021/12/21 11:01:08;;;;;;;8.80;5.05;;;;;;;1.00;70.52;101079.63;4950524;28;105945;-66
2021/12/21 11:03:44;;;;;;;8.93;4.25;;;;;;;0.99;69.93;101081.38;4948835;28;106522;-65
2021/12/21 11:06:16;;;;;;;8.07;4.80;;;;;;;0.93;69.92;101076.50;4951306;28;105956;-64
2021/12/21 11:08:45;;;;;;;12.10;4.53;;;;;;;0.96;70.24;101078.94;4950825;28;105945;-64
2021/12/21 11:11:47;;;;;;;10.57;4.88;;;;;;;1.01;69.93;101071.66;4952449;28;106283;-64
2021/12/21 11:14:17;;;;;;;8.82;4.50;;;;;;;0.93;69.39;101079.13;4963006;28;106199;-62
2021/12/21 11:16:51;;;;;;;11.50;3.72;;;;;;;0.83;68.88;101078.78;4970670;28;106123;-64
2021/12/21 11:19:23;;;;;;;13.77;4.88;;;;;;;0.82;69.85;101077.09;4964977;28;106628;-61
2021/12/21 11:21:49;;;;;;;4.13;2.20;;;;;;;0.87;69.57;101068.97;4970069;28;106321;-62
2021/12/21 11:24:18;;;;;;;4.35;2.03;;;;;;;0.91;69.48;101075.72;4969810;28;106393;-63
2021/12/21 11:26:46;;;;;;;3.92;2.15;;;;;;;0.93;69.06;101068.63;4970632;28;106095;-63
2021/12/21 11:29:18;;;;;;;8.88;2.25;;;;;;;0.97;69.10;101072.78;4969834;28;106319;-63
2021/12/21 11:31:52;;;;;;;5.50;2.08;;;;;;;1.08;69.06;101071.31;4969593;28;106207;-63
2021/12/21 11:34:21;;;;;;;8.80;2.83;;;;;;;1.11;68.49;101066.72;4969133;28;106129;-64
2021/12/21 11:39:33;;;;;;;7.47;1.92;;;;;;;1.35;68.78;101067.09;4968655;28;106566;-64
2021/12/21 11:42:01;;;;;;;6.53;2.97;;;;;;;1.45;68.30;101074.44;4968846;28;106285;-63
2021/12/21 11:44:52;;;;;;;13.73;3.20;;;;;;;1.55;68.36;101059.00;4967971;28;106616;-63
2021/12/21 11:47:27;;;;;;;7.65;3.15;;;;;;;1.59;67.71;101066.59;4969366;28;106556;-63
2021/12/21 11:50:00;;;;;;;6.20;2.92;;;;;;;1.69;68.32;101065.13;4969404;28;107724;-63
2021/12/21 11:52:28;;;;;;;10.15;3.72;;;;;;;1.72;67.78;101055.38;4969080;28;106073;-63
2021/12/21 11:55:07;;;;;;;6.97;3.90;;;;;;;1.72;67.27;101050.94;4969023;28;106438;-64
2021/12/21 11:57:51;;;;;;;8.30;3.85;;;;;;;1.78;67.76;101057.63;4969545;28;106053;-63
2021/12/21 12:00:34;;;;;;;12.13;4.18;;;;;;;1.86;67.41;101063.28;4968887;28;106049;-62
2021/12/21 12:03:14;;;;;;;6.70;3.10;;;;;;;1.86;66.68;101053.59;4968953;28;106364;-64
2021/12/21 12:05:50;;;;;;;9.50;3.10;;;;;;;1.89;66.88;101057.81;4968217;28;106108;-65
2021/12/21 12:08:16;;;;;;;7.13;3.28;;;;;;;1.86;66.53;101052.75;4968657;28;106325;-64
2021/12/21 12:10:54;;;;;;;6.53;3.53;;;;;;;1.90;66.68;101053.41;4968059;28;106347;-63
2021/12/21 12:13:32;;;;;;;6.50;3.60;;;;;;;1.92;66.52;101051.53;4968834;28;105839;-62
2021/12/21 12:16:02;;;;;;;8.10;3.55;;;;;;;1.84;66.22;101054.63;4968646;28;106695;-63
2021/12/21 12:18:36;;;;;;;8.10;3.33;;;;;;;1.73;66.44;101054.44;4969540;28;106152;-63
2021/12/21 12:21:12;;;;;;;10.32;3.30;;;;;;;1.57;66.49;101044.81;4969022;28;106401;-62
2021/12/21 12:23:48;;;;;;;9.40;4.13;;;;;;;1.32;65.66;101046.25;4968407;28;105856;-62
2021/12/21 12:26:30;;;;;;;7.35;3.88;;;;;;;1.20;66.44;101049.59;4968119;28;106034;-62
2021/12/21 12:29:11;;;;;;;12.00;3.30;;;;;;;1.14;66.46;101052.59;4969412;28;106623;-62
2021/12/21 12:31:39;;;;;;;4.70;2.40;;;;;;;1.05;66.38;101047.88;4967468;28;106277;-62
2021/12/21 12:34:04;;;;;;;6.28;2.47;;;;;;;0.93;66.06;101052.88;4967104;28;106039;-62
2021/12/21 12:36:34;;;;;;;9.93;4.72;;;;;;;0.84;66.81;101053.41;4968421;28;105999;-63
2021/12/21 12:38:59;;;;;;;3.60;1.55;;;;;;;0.82;66.82;101048.25;4969329;28;106313;-63
2021/12/21 12:41:25;;;;;;;3.80;2.15;;;;;;;0.80;66.41;101051.88;4968886;28;106114;-62
2021/12/21 12:43:50;;;;;;;4.80;2.42;;;;;;;0.77;66.85;101046.81;4968089;28;105872;-62
2021/12/21 12:46:26;;;;;;;4.82;2.50;;;;;;;0.72;66.81;101056.72;4968853;28;107003;-63
2021/12/21 12:48:51;;;;;;;3.70;2.10;;;;;;;0.59;66.40;101043.41;4969288;28;105899;-64
2021/12/21 12:51:37;;;;;;;12.50;2.60;;;;;;;0.47;66.86;101050.19;4968878;28;106170;-64
2021/12/21 12:54:17;;;;;;;3.78;2.17;;;;;;;0.40;66.88;101048.84;4968183;28;105877;-63
2021/12/21 12:56:42;;;;;;;9.07;2.13;;;;;;;0.37;67.05;101044.63;4968664;28;105845;-63
2021/12/21 12:59:08;;;;;;;4.15;1.75;;;;;;;0.37;67.27;101049.00;4969081;28;105871;-65
2021/12/21 13:01:40;;;;;;;7.88;2.55;;;;;;;0.34;66.73;101044.75;4967877;28;106169;-65
2021/12/21 13:04:09;;;;;;;7.72;3.17;;;;;;;0.28;66.83;101045.94;4966778;28;106064;-65
2021/12/21 13:06:36;;;;;;;8.10;2.83;;;;;;;0.27;67.09;101049.47;4966888;28;106173;-63
2021/12/21 13:09:12;;;;;;;6.65;2.17;;;;;;;0.28;66.94;101056.44;4967899;28;106208;-65
2021/12/21 13:11:40;;;;;;;5.80;2.45;;;;;;;0.20;66.61;101052.53;4968403;28;106096;-61
2021/12/21 13:14:08;;;;;;;6.50;2.10;;;;;;;0.11;66.62;101048.63;4968315;28;106128;-62
2021/12/21 13:16:35;;;;;;;2.67;2.10;;;;;;;0.04;67.09;101042.00;4968416;28;105945;-61
2021/12/21 13:19:06;;;;;;;6.55;2.60;;;;;;;-0.03;66.73;101052.84;4969042;28;106399;-62
2021/12/21 13:21:48;;;;;;;8.48;2.70;;;;;;;-0.02;67.23;101051.88;4968798;28;105774;-64
2021/12/21 13:24:16;;;;;;;4.68;2.25;;;;;;;-0.09;66.67;101053.13;4967735;28;106878;-64
2021/12/21 13:26:51;;;;;;;8.57;2.20;;;;;;;-0.21;66.49;101054.63;4967654;28;105942;-62
2021/12/21 13:29:21;;;;;;;4.90;2.42;;;;;;;-0.31;66.56;101047.34;4968987;28;105806;-66
2021/12/21 13:31:50;;;;;;;6.05;2.63;;;;;;;-0.40;66.84;101059.94;4968352;28;106194;-64
2021/12/21 13:34:18;;;;;;;6.57;2.97;;;;;;;-0.47;66.53;101058.56;4967584;28;105948;-65
2021/12/21 13:36:47;;;;;;;9.13;2.92;;;;;;;-0.53;66.93;101053.66;4966879;28;106220;-65
2021/12/21 13:39:24;;;;;;;10.35;4.45;;;;;;;-0.57;67.10;101052.13;4967799;28;106352;-64
2021/12/21 13:41:54;;;;;;;8.50;3.85;;;;;;;-0.58;67.62;101056.50;4967556;28;105972;-64
2021/12/21 13:44:24;;;;;;;9.65;3.65;;;;;;;-0.56;67.48;101052.06;4966808;28;105877;-64
2021/12/21 13:46:50;;;;;;;13.27;3.63;;;;;;;-0.57;67.09;101057.38;4967514;28;105927;-63
2021/12/21 13:49:16;;;;;;;9.25;3.67;;;;;;;-0.56;67.42;101061.66;4968431;28;106450;-66
2021/12/21 13:51:57;;;;;;;4.13;2.90;;;;;;;-0.62;67.13;101054.13;4966389;28;106511;-65
2021/12/21 13:54:23;;;;;;;14.45;2.90;;;;;;;-0.70;67.00;101057.13;4968035;28;105996;-67
2021/12/21 13:56:50;;;;;;;4.10;2.25;;;;;;;-0.74;67.46;101066.91;4967882;28;106135;-64
2021/12/21 13:59:17;;;;;;;7.10;2.50;;;;;;;-0.72;67.75;101059.81;4968593;28;106168;-64
2021/12/21 14:01:46;;;;;;;3.70;2.40;;;;;;;-0.81;66.89;101065.50;4967948;28;106103;-64
2021/12/21 14:04:14;;;;;;;2.67;1.80;;;;;;;-0.91;67.13;101064.25;4967468;28;105786;-64
2021/12/21 14:06:40;;;;;;;3.25;2.40;;;;;;;-0.95;67.48;101057.50;4969798;28;106079;-62
2021/12/21 14:09:09;;;;;;;5.28;2.88;;;;;;;-1.02;67.84;101057.78;4972310;28;106100;-63
2021/12/21 14:11:37;;;;;;;6.13;3.00;;;;;;;-1.06;67.78;101055.38;4971375;28;106174;-62
2021/12/21 14:14:12;;;;;;;3.90;2.53;;;;;;;-1.12;67.30;101053.91;4970914;28;105957;-63
2021/12/21 14:16:41;;;;;;;3.80;2.58;;;;;;;-1.18;67.66;101062.03;4970791;28;106129;-66
2021/12/21 14:19:07;;;;;;;6.13;2.58;;;;;;;-1.20;67.92;101059.50;4971589;28;106035;-64
2021/12/21 14:21:37;;;;;;;5.05;2.80;;;;;;;-1.17;68.11;101057.69;4971217;28;106637;-65
2021/12/21 14:24:08;;;;;;;;;;;;;;;-1.19;67.76;101055.13;4971538;28;106589;-64
2021/12/21 14:26:52;;;;;;;4.90;2.33;;;;;;;-1.25;67.80;101056.25;4970636;28;106060;-63
2021/12/21 14:29:22;;;;;;;8.30;2.85;;;;;;;-1.32;67.87;101057.47;4971860;28;106004;-64
2021/12/21 14:32:01;;;;;;;6.05;3.15;;;;;;;-1.38;68.12;101061.22;4971177;28;105952;-63
2021/12/21 14:34:34;;;;;;;7.05;3.20;;;;;;;-1.46;68.18;101057.25;4971006;28;106937;-63
2021/12/21 14:37:00;;;;;;;9.82;2.92;;;;;;;-1.48;68.55;101061.72;4971070;28;106387;-65
2021/12/21 14:39:29;;;;;;;9.48;4.10;;;;;;;-1.54;68.73;101055.84;4971808;28;105981;-64
2021/12/21 14:41:58;;;;;;;7.55;3.38;;;;;;;-1.59;68.62;101062.22;4970782;28;106386;-64
2021/12/21 14:44:24;;;;;;;14.18;4.05;;;;;;;-1.62;68.72;101059.75;4970062;28;106079;-64
2021/12/21 14:47:00;;;;;;;15.45;5.40;;;;;;;-1.66;69.43;101060.81;4970455;28;107109;-62
2021/12/21 14:49:50;;;;;;;11.05;4.78;;;;;;;-1.70;68.76;101060.09;4971419;28;105941;-63
2021/12/21 14:52:25;;;;;;;22.30;9.82;;;;;;;-1.75;69.37;101060.31;4970575;28;106295;-64
2021/12/21 14:55:00;;;;;;;22.05;9.30;;;;;;;-1.76;69.37;101058.63;4970720;28;106931;-64
2021/12/21 14:57:31;;;;;;;17.17;6.05;;;;;;;-1.78;69.79;101052.59;4969899;28;105992;-63
